Time;durP1;ratioP1;P1;durP2;ratioP2;P2;SDS_P1;SDS_P2;PMS_P1;PMS_P2;Temp;Humidity;BMP_temperature;BMP_pressure;BME280_temperature;BME280_humidity;BME280_pressure;Samples;Min_cycle;Max_cycle;Signal;HPM_P1;HPM_P2
2024/01/17 00:01:24;;;;;;;5.65;3.70;;;;;;;2.84;100.00;100709.84;5030935;28;20033;-76
2024/01/17 00:03:49;;;;;;;5.38;2.97;;;;;;;2.66;100.00;100686.47;5030538;28;20487;-76
2024/01/17 00:06:15;;;;;;;7.05;2.75;;;;;;;2.77;100.00;100712.72;5030178;28;20036;-79
2024/01/17 00:08:40;;;;;;;6.07;3.05;;;;;;;2.74;100.00;100716.84;5030785;28;20111;-79
2024/01/17 00:11:06;;;;;;;6.82;3.15;;;;;;;2.77;100.00;100715.25;5030021;28;20104;-75
2024/01/17 00:13:31;;;;;;;5.05;3.22;;;;;;;2.37;100.00;100652.13;5029901;28;20033;-75
2024/01/17 00:15:57;;;;;;;4.65;2.85;;;;;;;2.25;100.00;100644.47;5030795;28;20075;-76
2024/01/17 00:18:22;;;;;;;5.35;2.67;;;;;;;2.71;100.00;100728.47;5030156;28;20407;-75
2024/01/17 00:20:48;;;;;;;6.28;3.00;;;;;;;2.70;100.00;100712.28;5029816;28;20029;-77
2024/01/17 00:23:13;;;;;;;5.07;3.10;;;;;;;2.77;100.00;100720.38;5029625;28;20091;-75
2024/01/17 00:25:39;;;;;;;6.88;3.70;;;;;;;2.65;100.00;100705.09;5030207;28;20469;-76
2024/01/17 00:28:04;;;;;;;6.88;3.13;;;;;;;2.50;100.00;100697.22;5029369;28;20466;-78
2024/01/17 00:30:30;;;;;;;9.30;3.72;;;;;;;2.73;100.00;100730.34;5029683;28;20033;-76
2024/01/17 00:32:56;;;;;;;7.55;3.67;;;;;;;2.69;100.00;100725.81;5029521;28;20025;-76
2024/01/17 00:35:22;;;;;;;5.68;3.20;;;;;;;2.64;100.00;100733.91;5029857;28;20556;-75
2024/01/17 00:37:48;;;;;;;6.93;3.97;;;;;;;2.57;100.00;100714.72;5029513;28;20079;-76
2024/01/17 00:40:14;;;;;;;5.95;3.30;;;;;;;2.63;100.00;100732.13;5030119;28;20026;-76
2024/01/17 00:42:40;;;;;;;7.63;3.40;;;;;;;2.62;100.00;100735.44;5011153;28;20052;-76
2024/01/17 00:45:07;;;;;;;6.93;3.58;;;;;;;2.64;100.00;100734.81;5029881;28;20053;-77
2024/01/17 00:47:32;;;;;;;7.20;3.67;;;;;;;2.67;100.00;100735.00;5025398;28;20091;-75
2024/01/17 00:49:58;;;;;;;6.30;3.00;;;;;;;2.03;100.00;100625.06;5029930;28;20041;-76
2024/01/17 00:52:24;;;;;;;6.25;3.88;;;;;;;2.65;100.00;100725.47;5029168;28;20034;-79
2024/01/17 00:54:49;;;;;;;7.97;3.85;;;;;;;2.22;100.00;100665.50;5029724;28;20063;-76
2024/01/17 00:57:15;;;;;;;8.50;4.07;;;;;;;2.53;100.00;100718.72;5030155;28;20048;-77
2024/01/17 00:59:40;;;;;;;6.50;3.38;;;;;;;2.64;100.00;100721.16;5029274;28;20033;-80
2024/01/17 01:02:06;;;;;;;8.05;3.40;;;;;;;2.22;100.00;100642.56;5028979;28;20491;-75
2024/01/17 01:04:31;;;;;;;5.03;3.20;;;;;;;2.47;100.00;100686.78;5029203;28;20033;-75
2024/01/17 01:06:57;;;;;;;9.02;3.80;;;;;;;2.61;100.00;100714.16;5028740;28;20036;-76
2024/01/17 01:09:22;;;;;;;5.38;3.83;;;;;;;1.54;100.00;100524.72;5032048;28;20123;-75
2024/01/17 01:11:48;;;;;;;7.43;3.90;;;;;;;2.66;100.00;100710.28;5034309;28;20033;-78
2024/01/17 01:14:13;;;;;;;6.55;3.30;;;;;;;2.68;100.00;100707.84;5033201;28;20045;-75
2024/01/17 01:16:39;;;;;;;10.73;3.40;;;;;;;2.73;100.00;100709.09;5032101;28;20088;-80
2024/01/17 01:19:04;;;;;;;9.13;3.60;;;;;;;2.71;100.00;100708.06;5033701;28;20049;-76
2024/01/17 01:21:30;;;;;;;9.38;3.63;;;;;;;2.73;100.00;100699.75;5032859;28;20037;-76
2024/01/17 01:23:55;;;;;;;8.15;4.07;;;;;;;2.33;100.00;100627.19;5033300;28;20053;-76
2024/01/17 01:26:21;;;;;;;6.53;3.13;;;;;;;2.59;100.00;100696.22;5033352;28;20472;-77
2024/01/17 01:28:46;;;;;;;8.02;4.10;;;;;;;2.36;100.00;100658.00;5032961;28;20032;-76
2024/01/17 01:31:12;;;;;;;5.50;3.25;;;;;;;2.64;100.00;100706.75;5033011;28;20472;-75
2024/01/17 01:33:37;;;;;;;9.30;3.15;;;;;;;2.50;100.00;100687.91;5032500;28;20104;-77
2024/01/17 01:36:04;;;;;;;9.63;3.92;;;;;;;2.10;100.00;100624.72;5031758;28;20385;-76
2024/01/17 01:38:29;;;;;;;7.18;3.70;;;;;;;2.40;100.00;100695.66;5032974;28;20120;-76
2024/01/17 01:40:58;;;;;;;9.07;3.30;;;;;;;2.31;100.00;100698.41;5032750;28;20503;-76
2024/01/17 01:43:25;;;;;;;8.63;3.70;;;;;;;2.50;100.00;100699.75;5032211;28;20059;-76
2024/01/17 01:46:12;;;;;;;7.45;3.65;;;;;;;2.46;100.00;100700.31;5032484;28;20029;-76
2024/01/17 01:48:38;;;;;;;8.93;4.10;;;;;;;2.45;100.00;100689.22;5029145;28;20033;-74
2024/01/17 01:51:04;;;;;;;10.85;4.10;;;;;;;2.08;100.00;100616.09;5032548;28;20402;-76
2024/01/17 01:53:32;;;;;;;6.85;3.80;;;;;;;2.56;100.00;100695.97;5033804;28;20108;-78
2024/01/17 01:55:58;;;;;;;8.95;3.58;;;;;;;2.40;100.00;100675.25;5032766;28;20091;-79
2024/01/17 01:58:25;;;;;;;11.50;4.03;;;;;;;1.94;100.00;100629.47;5032661;28;20047;-76
2024/01/17 02:00:52;;;;;;;6.82;3.17;;;;;;;2.18;100.00;100683.00;5033339;28;20086;-76
2024/01/17 02:03:19;;;;;;;7.03;3.50;;;;;;;2.12;100.00;100673.25;5032131;28;20045;-76
2024/01/17 02:05:45;;;;;;;9.00;3.75;;;;;;;2.12;100.00;100667.25;5023839;28;20120;-78
2024/01/17 02:08:11;;;;;;;8.88;4.43;;;;;;;2.32;100.00;100705.28;5031950;28;20534;-76
2024/01/17 02:10:37;;;;;;;8.93;4.07;;;;;;;1.87;100.00;100617.06;5032158;28;20037;-76
2024/01/17 02:13:04;;;;;;;7.63;3.85;;;;;;;2.31;100.00;100697.53;5031955;28;20514;-79
2024/01/17 02:15:29;;;;;;;8.40;3.85;;;;;;;1.94;100.00;100653.28;5032955;28;20451;-81
2024/01/17 02:17:55;;;;;;;8.02;4.10;;;;;;;1.99;100.00;100668.88;5032367;28;20041;-76
2024/01/17 02:20:21;;;;;;;7.22;4.50;;;;;;;1.95;100.00;100687.25;5029325;28;20153;-74
2024/01/17 02:22:46;;;;;;;11.90;4.05;;;;;;;1.83;100.00;100676.16;5029391;28;20044;-76
2024/01/17 02:25:12;;;;;;;7.45;4.50;;;;;;;1.87;100.00;100695.97;5029521;28;20053;-82
2024/01/17 02:27:38;;;;;;;7.70;3.72;;;;;;;1.17;100.00;100583.00;5029274;28;20120;-76
2024/01/17 02:30:06;;;;;;;9.13;4.28;;;;;;;1.71;100.00;100699.03;5029117;28;20041;-75
2024/01/17 02:32:33;;;;;;;9.93;4.18;;;;;;;1.09;100.00;100607.84;5029953;28;20144;-81
2024/01/17 02:34:59;;;;;;;10.07;4.30;;;;;;;1.15;100.00;100625.22;5029157;28;20045;-75
2024/01/17 02:37:25;;;;;;;8.25;5.13;;;;;;;0.89;100.00;100597.03;5029062;28;20041;-76
2024/01/17 02:39:50;;;;;;;8.40;4.38;;;;;;;1.39;100.00;100693.25;5028898;28;20044;-76
2024/01/17 02:42:16;;;;;;;8.02;4.05;;;;;;;1.42;100.00;100701.13;5029129;28;20037;-75
2024/01/17 02:44:41;;;;;;;8.73;4.53;;;;;;;1.39;100.00;100698.31;5029067;28;20029;-78
2024/01/17 02:47:07;;;;;;;8.65;4.18;;;;;;;1.30;100.00;100707.81;5029576;28;20126;-76
2024/01/17 02:49:32;;;;;;;8.68;4.22;;;;;;;1.04;100.00;100671.03;5028858;28;20040;-76
2024/01/17 02:51:58;;;;;;;8.38;4.05;;;;;;;1.08;100.00;100703.56;5030684;28;20046;-78
2024/01/17 02:54:23;;;;;;;7.53;4.10;;;;;;;0.92;100.00;100708.22;5031761;28;20033;-75
2024/01/17 02:56:49;;;;;;;7.75;4.68;;;;;;;0.87;100.00;100697.66;5031316;28;20055;-75
2024/01/17 02:59:15;;;;;;;8.02;4.63;;;;;;;0.88;100.00;100712.16;5031336;28;20124;-76
2024/01/17 03:01:41;;;;;;;7.47;4.50;;;;;;;0.88;100.00;100709.63;5031926;28;20029;-76
2024/01/17 03:04:06;;;;;;;8.98;5.13;;;;;;;0.82;100.00;100711.66;5029582;28;20033;-79
2024/01/17 03:06:32;;;;;;;8.77;5.07;;;;;;;0.71;100.00;100708.28;5031507;28;20044;-76
2024/01/17 03:08:57;;;;;;;8.98;5.15;;;;;;;0.36;100.00;100645.34;5031054;28;20040;-76
2024/01/17 03:11:23;;;;;;;9.40;5.32;;;;;;;0.64;100.00;100694.19;5030945;28;20168;-78
2024/01/17 03:13:48;;;;;;;7.80;5.05;;;;;;;0.65;100.00;100692.56;5030951;28;20397;-75
2024/01/17 03:16:16;;;;;;;8.68;5.40;;;;;;;0.69;100.00;100704.72;5031477;28;20107;-73
2024/01/17 03:18:41;;;;;;;7.50;4.80;;;;;;;0.77;100.00;100702.78;5030783;28;20516;-74
2024/01/17 03:21:07;;;;;;;8.60;5.57;;;;;;;0.75;100.00;100710.31;5030192;28;20063;-80
2024/01/17 03:23:33;;;;;;;9.75;5.25;;;;;;;0.67;100.00;100691.00;5030499;28;20029;-83
2024/01/17 03:25:58;;;;;;;8.77;5.15;;;;;;;0.62;100.00;100688.13;5031193;28;20156;-80
2024/01/17 03:28:24;;;;;;;8.30;4.95;;;;;;;0.36;100.00;100647.03;5030167;28;20057;-82
2024/01/17 03:30:49;;;;;;;8.82;5.15;;;;;;;0.18;100.00;100648.97;5030650;28;20111;-82
2024/01/17 03:33:15;;;;;;;9.70;5.43;;;;;;;0.38;100.00;100694.63;5030375;28;20492;-80
2024/01/17 03:35:42;;;;;;;9.48;5.93;;;;;;;0.41;100.00;100699.06;5029969;28;20029;-80
2024/01/17 03:38:09;;;;;;;8.52;4.97;;;;;;;0.02;100.00;100613.84;5029865;28;20021;-81
2024/01/17 03:40:34;;;;;;;8.73;5.25;;;;;;;0.38;100.00;100683.59;5026017;28;20029;-81
2024/01/17 03:43:00;;;;;;;11.07;5.57;;;;;;;0.49;100.00;100708.22;5030020;28;20025;-81
2024/01/17 03:45:26;;;;;;;7.40;4.88;;;;;;;-0.13;100.00;100609.28;5029998;28;20033;-83
2024/01/17 03:47:52;;;;;;;9.98;5.18;;;;;;;0.15;100.00;100655.56;5029136;28;20072;-77
2024/01/17 03:50:17;;;;;;;10.20;5.18;;;;;;;0.54;100.00;100723.84;5029371;28;20116;-80
2024/01/17 03:52:43;;;;;;;7.60;4.93;;;;;;;0.43;100.00;100700.09;5028589;28;20026;-81
2024/01/17 03:55:08;;;;;;;9.30;4.88;;;;;;;0.43;100.00;100706.06;5029712;28;20397;-80
2024/01/17 03:57:34;;;;;;;8.95;5.13;;;;;;;0.52;100.00;100708.44;5029576;28;20197;-76
2024/01/17 04:00:00;;;;;;;9.15;5.25;;;;;;;0.57;100.00;100722.41;5029951;28;20136;-82
2024/01/17 04:02:26;;;;;;;9.30;5.15;;;;;;;0.47;100.00;100713.19;5029548;28;20412;-78
2024/01/17 04:04:51;;;;;;;9.23;5.53;;;;;;;0.27;100.00;100720.81;5028974;28;20030;-77
2024/01/17 04:07:20;;;;;;;12.70;6.05;;;;;;;0.31;100.00;100728.81;5029511;28;20112;-79
2024/01/17 04:09:46;;;;;;;8.20;4.07;;;;;;;0.18;100.00;100712.44;5030033;28;20032;-82
2024/01/17 04:12:12;;;;;;;11.52;6.32;;;;;;;-0.67;100.00;100569.34;5028922;28;20046;-82
2024/01/17 04:14:37;;;;;;;9.03;5.23;;;;;;;0.29;100.00;100737.94;5028218;28;20037;-83
2024/01/17 04:17:03;;;;;;;8.00;5.53;;;;;;;0.29;100.00;100745.56;5028518;28;20060;-80
2024/01/17 04:19:28;;;;;;;10.27;5.90;;;;;;;-0.35;100.00;100639.59;5026312;28;20043;-80
2024/01/17 04:21:57;;;;;;;11.30;5.63;;;;;;;0.05;100.00;100721.59;5026774;28;20467;-84
2024/01/17 04:24:26;;;;;;;11.50;5.93;;;;;;;0.12;100.00;100739.09;5010195;28;20041;-81
2024/01/17 04:26:55;;;;;;;9.67;5.17;;;;;;;0.15;100.00;100748.63;5026517;28;20533;-80
2024/01/17 04:29:20;;;;;;;7.57;4.93;;;;;;;0.03;100.00;100751.03;5026648;28;20025;-82
2024/01/17 04:31:47;;;;;;;7.78;5.40;;;;;;;0.03;100.00;100752.69;5027563;28;20052;-82
2024/01/17 04:34:12;;;;;;;9.25;5.65;;;;;;;-0.32;100.00;100705.81;5010091;28;20596;-81
2024/01/17 04:36:38;;;;;;;10.53;5.87;;;;;;;-0.05;100.00;100757.09;5027928;28;20068;-81
2024/01/17 04:39:04;;;;;;;9.33;5.57;;;;;;;-0.11;100.00;100756.56;5010988;28;20116;-79
2024/01/17 04:41:31;;;;;;;11.60;6.30;;;;;;;-0.27;100.00;100721.44;5027286;28;20069;-84
2024/01/17 04:43:57;;;;;;;14.70;8.18;;;;;;;-0.01;100.00;100765.09;5027951;28;20045;-81
2024/01/17 04:46:23;;;;;;;12.07;6.70;;;;;;;-0.26;100.00;100720.66;5028311;28;20512;-80
2024/01/17 04:48:48;;;;;;;13.67;7.37;;;;;;;-0.20;100.00;100737.31;5009646;28;20044;-75
2024/01/17 04:51:15;;;;;;;21.70;8.40;;;;;;;-0.43;100.00;100707.44;5026207;28;20069;-75
2024/01/17 04:53:43;;;;;;;18.33;7.87;;;;;;;-0.19;100.00;100756.84;5027185;28;20028;-74
2024/01/17 04:56:10;;;;;;;16.10;8.53;;;;;;;-0.10;100.00;100781.19;5010612;28;20041;-76
2024/01/17 04:58:36;;;;;;;12.33;7.27;;;;;;;-0.10;100.00;100781.19;5024490;28;20041;-76
2024/01/17 05:01:03;;;;;;;10.93;6.60;;;;;;;-0.19;100.00;100786.38;5021597;28;20121;-78
2024/01/17 05:03:28;;;;;;;9.90;6.10;;;;;;;-0.45;100.00;100779.97;5023248;28;20049;-76
2024/01/17 05:05:54;;;;;;;10.33;5.80;;;;;;;-0.85;100.00;100728.38;5028636;28;20045;-77
2024/01/17 05:08:19;;;;;;;10.23;5.70;;;;;;;-0.35;100.00;100807.03;5026190;28;20563;-78
2024/01/17 05:10:46;;;;;;;10.07;6.40;;;;;;;-0.36;100.00;100810.34;5026804;28;20046;-78
2024/01/17 05:13:12;;;;;;;11.40;6.57;;;;;;;-0.36;100.00;100802.72;5028127;28;20025;-74
2024/01/17 05:15:39;;;;;;;10.87;6.33;;;;;;;-0.63;100.00;100743.78;5010168;28;20037;-80
2024/01/17 05:18:06;;;;;;;11.50;6.23;;;;;;;-0.25;100.00;100796.00;5027556;28;20060;-82
2024/01/17 05:20:32;;;;;;;11.13;6.07;;;;;;;-0.12;100.00;100818.28;5027153;28;20025;-83
2024/01/17 05:22:58;;;;;;;10.37;6.37;;;;;;;-0.21;100.00;100790.47;5028059;28;20022;-82
2024/01/17 05:25:24;;;;;;;10.63;5.90;;;;;;;-0.85;100.00;100667.53;5026911;28;20061;-84
2024/01/17 05:27:52;;;;;;;11.87;5.80;;;;;;;-0.74;100.00;100692.16;5027489;28;20036;-82
2024/01/17 05:30:24;;;;;;;10.70;6.27;;;;;;;-0.07;100.00;100796.72;5028214;28;20029;-81
2024/01/17 05:32:50;;;;;;;21.60;6.97;;;;;;;-0.12;100.00;100775.13;5027441;28;20025;-84
2024/01/17 05:35:16;;;;;;;13.23;6.37;;;;;;;0.01;100.00;100803.31;5027692;28;20527;-83
2024/01/17 05:37:42;;;;;;;14.60;6.40;;;;;;;0.03;100.00;100806.00;5028112;28;20121;-85
2024/01/17 05:40:09;;;;;;;11.33;6.67;;;;;;;-0.16;100.00;100773.97;5028121;28;20041;-82
2024/01/17 05:42:36;;;;;;;11.53;6.40;;;;;;;0.01;100.00;100798.22;5044210;28;20135;-82
2024/01/17 05:45:03;;;;;;;9.73;6.18;;;;;;;0.06;100.00;100808.78;5029940;28;20071;-78
2024/01/17 05:47:28;;;;;;;16.47;7.97;;;;;;;-0.23;100.00;100774.22;5046528;28;20125;-78
2024/01/17 05:49:54;;;;;;;13.43;6.20;;;;;;;-0.53;100.00;100732.78;5046684;28;20482;-78
2024/01/17 05:52:19;;;;;;;13.33;6.80;;;;;;;-0.39;100.00;100766.94;5027697;28;20087;-78
2024/01/17 05:54:45;;;;;;;13.03;7.17;;;;;;;-0.09;100.00;100814.31;5047240;28;20025;-76
2024/01/17 05:57:10;;;;;;;14.03;6.53;;;;;;;-0.41;100.00;100755.75;5049948;28;20037;-79
2024/01/17 05:59:36;;;;;;;14.90;7.53;;;;;;;-0.12;100.00;100798.84;5050149;28;20047;-77
2024/01/17 06:02:01;;;;;;;12.40;6.67;;;;;;;-0.04;100.00;100812.19;5050798;28;20045;-78
2024/01/17 06:04:28;;;;;;;11.20;6.27;;;;;;;-0.02;100.00;100825.91;5050175;28;20515;-77
2024/01/17 06:06:53;;;;;;;13.07;7.03;;;;;;;-0.31;100.00;100785.34;5049168;28;20029;-76
2024/01/17 06:09:19;;;;;;;12.27;7.40;;;;;;;-0.25;100.00;100832.44;5050044;28;20470;-78
2024/01/17 06:12:05;;;;;;;16.77;7.47;;;;;;;-0.25;100.00;100832.44;5049485;28;20041;-78
2024/01/17 06:14:32;;;;;;;16.53;7.50;;;;;;;-0.44;100.00;100812.19;4992597;28;20398;-79
2024/01/17 06:16:58;;;;;;;13.47;7.00;;;;;;;-0.26;100.00;100852.59;4989883;28;20104;-74
2024/01/17 06:19:23;;;;;;;12.43;7.10;;;;;;;-0.45;100.00;100837.44;4990274;28;20086;-77
2024/01/17 06:21:49;;;;;;;13.53;7.13;;;;;;;-0.47;100.00;100833.84;4951236;29;20043;-86
2024/01/17 06:24:14;;;;;;;18.00;7.17;;;;;;;-0.40;100.00;100844.69;4951254;29;20047;-75
2024/01/17 06:26:40;;;;;;;12.87;6.83;;;;;;;-0.61;100.00;100807.31;4951399;28;20094;-78
2024/01/17 06:29:06;;;;;;;14.73;7.57;;;;;;;-0.27;100.00;100871.13;4951217;29;20074;-79
2024/01/17 06:31:32;;;;;;;11.43;6.90;;;;;;;-0.37;100.00;100849.16;4951153;29;20097;-77
2024/01/17 06:33:58;;;;;;;13.53;7.47;;;;;;;-0.62;100.00;100802.97;4950525;29;20494;-78
2024/01/17 06:36:24;;;;;;;14.03;7.07;;;;;;;-0.47;100.00;100821.19;4950777;29;20051;-79
2024/01/17 06:38:50;;;;;;;11.13;7.10;;;;;;;-0.20;100.00;100856.56;4950612;29;20106;-79
2024/01/17 06:41:17;;;;;;;11.48;7.40;;;;;;;-1.15;100.00;100702.13;4935625;28;20046;-77
2024/01/17 06:43:44;;;;;;;16.00;7.10;;;;;;;-0.34;100.00;100818.94;4950800;29;20121;-78
2024/01/17 06:46:10;;;;;;;17.10;9.00;;;;;;;-0.22;100.00;100816.59;4995933;28;20069;-79
2024/01/17 06:48:36;;;;;;;14.88;8.43;;;;;;;0.29;100.00;100866.59;5008825;28;20080;-75
2024/01/17 06:51:02;;;;;;;19.88;9.38;;;;;;;0.42;100.00;100864.28;5009157;28;20464;-77
2024/01/17 06:53:28;;;;;;;14.13;7.72;;;;;;;-0.21;100.00;100763.44;5020295;28;20099;-77
2024/01/17 06:55:54;;;;;;;14.70;7.50;;;;;;;0.12;100.00;100812.72;5031227;28;20029;-80
2024/01/17 06:58:19;;;;;;;23.50;8.60;;;;;;;0.46;100.00;100855.28;5031647;28;20056;-79
2024/01/17 07:00:45;;;;;;;21.60;10.50;;;;;;;0.58;100.00;100832.56;5029630;28;20037;-78
2024/01/17 07:03:11;;;;;;;17.45;7.78;;;;;;;0.66;100.00;100823.94;5030553;28;20087;-78
2024/01/17 07:05:37;;;;;;;12.43;7.28;;;;;;;0.71;100.00;100804.84;5030707;28;20025;-78
2024/01/17 07:08:05;;;;;;;13.07;7.55;;;;;;;0.97;100.00;100844.19;5030174;28;20059;-81
2024/01/17 07:10:31;;;;;;;17.38;7.88;;;;;;;0.83;100.00;100819.31;5028729;28;20120;-77
2024/01/17 07:12:56;;;;;;;14.45;8.77;;;;;;;1.11;100.00;100861.47;5026804;28;20464;-75
2024/01/17 07:15:22;;;;;;;17.02;8.68;;;;;;;0.96;100.00;100819.56;5031333;28;20037;-76
2024/01/17 07:17:47;;;;;;;11.05;6.72;;;;;;;0.60;100.00;100777.69;5029939;28;20092;-79
2024/01/17 07:20:13;;;;;;;11.48;6.90;;;;;;;0.80;100.00;100800.50;5029186;28;20119;-78
2024/01/17 07:22:44;;;;;;;23.13;12.13;;;;;;;1.38;100.00;100877.16;5027921;28;20120;-79
2024/01/17 07:25:10;;;;;;;18.58;10.23;;;;;;;1.00;100.00;100786.00;5026827;28;20407;-80
2024/01/17 07:27:40;;;;;;;15.73;9.50;;;;;;;1.46;100.00;100847.28;5031360;28;20025;-78
2024/01/17 07:30:06;;;;;;;;;;;;;;;1.79;100.00;100878.69;5027432;28;20462;-82
2024/01/17 07:32:31;;;;;;;12.90;6.97;;;;;;;1.77;100.00;100876.03;5028608;28;20036;-78
2024/01/17 07:34:57;;;;;;;12.32;7.72;;;;;;;1.73;100.00;100850.19;5023366;28;20132;-80
2024/01/17 07:37:22;;;;;;;24.13;13.93;;;;;;;1.68;100.00;100839.66;5025894;28;20042;-79
2024/01/17 07:39:48;;;;;;;22.55;10.32;;;;;;;1.90;100.00;100859.16;5027689;28;20423;-81
2024/01/17 07:42:14;;;;;;;14.48;8.27;;;;;;;2.25;100.00;100887.34;5028610;28;20503;-77
2024/01/17 07:44:40;;;;;;;15.27;9.15;;;;;;;2.13;100.00;100834.59;5025841;28;20034;-79
2024/01/17 07:47:05;;;;;;;19.40;9.57;;;;;;;2.64;100.00;100881.75;5028565;28;20041;-76
2024/01/17 07:49:36;;;;;;;15.75;8.35;;;;;;;2.72;100.00;100863.69;5029275;28;20037;-77
2024/01/17 07:52:01;;;;;;;11.60;7.35;;;;;;;2.85;99.85;100862.94;5028090;28;20048;-79
2024/01/17 07:54:27;;;;;;;13.75;8.10;;;;;;;3.01;99.81;100869.19;5029827;28;20480;-78
2024/01/17 07:56:53;;;;;;;16.13;8.80;;;;;;;3.20;98.42;100889.28;5029590;28;20044;-78
2024/01/17 07:59:18;;;;;;;12.60;7.50;;;;;;;3.30;97.86;100898.50;5028314;28;20104;-77
2024/01/17 08:01:44;;;;;;;9.13;5.32;;;;;;;2.92;95.40;100828.59;5030430;28;20476;-77
2024/01/17 08:04:09;;;;;;;30.98;18.20;;;;;;;2.99;95.86;100830.81;5028227;28;20480;-79
2024/01/17 08:06:35;;;;;;;144.27;55.97;;;;;;;3.23;97.52;100858.91;5028962;28;20041;-76
2024/01/17 08:09:02;;;;;;;46.80;22.88;;;;;;;2.86;99.64;100800.97;5028452;28;20026;-75
2024/01/17 08:11:27;;;;;;;12.88;7.03;;;;;;;3.37;100.00;100885.41;5029434;28;20035;-77
2024/01/17 08:13:53;;;;;;;14.70;7.32;;;;;;;3.37;100.00;100868.41;5029410;28;20415;-78
2024/01/17 08:16:20;;;;;;;16.63;6.97;;;;;;;3.28;100.00;100852.47;5029972;28;20144;-76
2024/01/17 08:18:49;;;;;;;17.33;7.00;;;;;;;3.37;100.00;100867.53;5028377;28;20120;-77
2024/01/17 08:21:15;;;;;;;9.75;5.60;;;;;;;3.21;100.00;100837.47;5027798;28;20068;-79
2024/01/17 08:23:41;;;;;;;11.55;6.82;;;;;;;3.25;100.00;100844.56;5029779;28;20079;-77
2024/01/17 08:26:07;;;;;;;12.57;5.60;;;;;;;3.36;100.00;100853.88;5029186;28;20033;-77
2024/01/17 08:28:33;;;;;;;13.52;5.93;;;;;;;3.53;100.00;100865.31;5028662;28;20091;-80
2024/01/17 08:30:59;;;;;;;12.65;6.63;;;;;;;3.40;100.00;100811.59;5029144;28;20034;-80
2024/01/17 08:33:25;;;;;;;11.65;7.15;;;;;;;3.68;100.00;100828.91;5028994;28;20029;-79
2024/01/17 08:35:51;;;;;;;7.88;5.32;;;;;;;3.66;100.00;100816.00;5027683;28;20033;-80
2024/01/17 08:38:16;;;;;;;11.20;6.03;;;;;;;3.78;100.00;100817.66;5029282;28;20087;-79
2024/01/17 08:40:42;;;;;;;10.70;6.03;;;;;;;3.91;100.00;100832.16;5011710;28;20041;-79
2024/01/17 08:43:07;;;;;;;10.32;6.57;;;;;;;4.22;100.00;100858.16;5028973;28;20044;-80
2024/01/17 08:45:33;;;;;;;9.13;5.65;;;;;;;4.02;100.00;100804.00;5024640;28;20037;-78
2024/01/17 08:47:58;;;;;;;13.50;7.28;;;;;;;4.26;100.00;100816.72;5027661;28;20583;-77
2024/01/17 08:50:24;;;;;;;10.68;6.40;;;;;;;4.38;100.00;100849.88;5029669;28;20538;-77
2024/01/17 08:52:51;;;;;;;11.48;6.60;;;;;;;4.41;100.00;100847.53;5028844;28;20021;-75
2024/01/17 08:55:18;;;;;;;11.43;6.45;;;;;;;4.34;100.00;100825.75;5028938;28;20120;-74
2024/01/17 08:57:43;;;;;;;11.07;6.20;;;;;;;4.57;100.00;100831.53;5027403;28;20460;-78
2024/01/17 09:00:09;;;;;;;12.15;6.45;;;;;;;4.55;100.00;100805.00;5028457;28;20079;-77
2024/01/17 09:02:35;;;;;;;9.10;5.57;;;;;;;4.57;100.00;100779.53;5026295;28;20119;-75
2024/01/17 09:05:00;;;;;;;10.88;6.28;;;;;;;4.80;100.00;100809.19;5029821;28;20476;-74
2024/01/17 09:07:26;;;;;;;12.77;6.70;;;;;;;4.41;100.00;100732.50;5028976;28;20038;-78
2024/01/17 09:09:51;;;;;;;11.13;5.63;;;;;;;4.88;100.00;100800.31;5027432;28;20057;-76
2024/01/17 09:12:18;;;;;;;11.32;5.80;;;;;;;4.88;100.00;100802.00;5028857;28;20762;-75
2024/01/17 09:14:43;;;;;;;11.30;5.90;;;;;;;5.07;100.00;100794.72;5028962;28;20029;-74
2024/01/17 09:17:09;;;;;;;10.07;4.70;;;;;;;5.20;99.65;100783.59;5029748;28;20443;-75
2024/01/17 09:19:35;;;;;;;16.33;7.95;;;;;;;5.34;99.09;100792.13;5029029;28;20120;-74
2024/01/17 09:22:00;;;;;;;18.55;11.50;;;;;;;5.54;98.50;100808.75;5028783;28;20128;-79
2024/01/17 09:24:26;;;;;;;11.32;6.50;;;;;;;5.65;97.83;100801.75;5028465;28;20041;-74
2024/01/17 09:26:52;;;;;;;15.95;7.18;;;;;;;5.26;97.55;100720.00;5029483;28;20025;-74
2024/01/17 09:29:18;;;;;;;9.02;5.68;;;;;;;5.17;97.69;100715.19;5028724;28;20029;-74
2024/01/17 09:31:46;;;;;;;8.95;5.03;;;;;;;5.60;96.35;100755.34;5032695;28;20502;-74
2024/01/17 09:34:12;;;;;;;8.75;4.97;;;;;;;5.75;96.37;100769.91;5032391;28;20041;-73
2024/01/17 09:36:38;;;;;;;8.00;4.85;;;;;;;5.73;96.24;100763.78;5049644;28;20477;-74
2024/01/17 09:39:04;;;;;;;13.50;6.18;;;;;;;5.79;96.76;100765.03;5049660;28;20048;-74
2024/01/17 09:41:30;;;;;;;11.27;5.70;;;;;;;5.91;96.43;100746.97;5048998;28;20045;-74
2024/01/17 09:43:57;;;;;;;12.93;5.90;;;;;;;5.92;96.66;100752.97;5047667;28;20025;-76
2024/01/17 09:46:23;;;;;;;12.25;5.10;;;;;;;5.88;94.41;100741.69;5045548;28;20112;-74
2024/01/17 09:48:49;;;;;;;10.18;4.78;;;;;;;6.07;94.99;100746.25;5049802;28;20155;-80
2024/01/17 09:51:18;;;;;;;8.55;4.75;;;;;;;6.32;93.20;100758.81;5049915;28;20049;-75
2024/01/17 09:53:48;;;;;;;8.98;5.60;;;;;;;6.50;91.80;100745.31;5049664;28;20491;-74
2024/01/17 09:56:16;;;;;;;7.82;4.22;;;;;;;5.80;91.36;100612.22;5045896;28;20045;-76
2024/01/17 09:58:45;;;;;;;8.40;4.57;;;;;;;6.64;91.45;100740.97;5017128;28;20032;-76
2024/01/17 10:01:14;;;;;;;7.75;4.97;;;;;;;6.67;91.97;100720.63;5049264;28;20032;-74
2024/01/17 10:03:44;;;;;;;10.57;5.72;;;;;;;6.83;90.77;100722.38;5049299;28;20036;-74
2024/01/17 10:06:12;;;;;;;9.27;4.55;;;;;;;6.94;89.68;100722.97;5049225;28;20080;-73
2024/01/17 10:08:38;;;;;;;8.50;4.72;;;;;;;6.86;89.80;100686.59;5033805;28;20038;-74
2024/01/17 10:11:04;;;;;;;9.38;5.47;;;;;;;7.08;89.36;100686.13;5031885;28;20029;-74
2024/01/17 10:13:29;;;;;;;7.72;4.25;;;;;;;7.17;89.59;100669.44;5030917;28;20030;-74
2024/01/17 10:15:59;;;;;;;16.92;6.50;;;;;;;7.24;89.75;100687.81;5032366;28;20037;-75
2024/01/17 10:18:25;;;;;;;;;;;;;;;7.36;90.07;100690.16;5031943;28;20490;-80
2024/01/17 10:20:50;;;;;;;8.63;5.18;;;;;;;7.52;88.03;100690.97;5031533;28;19932;-74
2024/01/17 10:23:16;;;;;;;9.23;5.38;;;;;;;7.61;88.06;100676.94;5031055;28;20519;-74
2024/01/17 10:25:42;;;;;;;8.98;5.45;;;;;;;7.38;89.27;100651.72;5031552;28;20823;-74
2024/01/17 10:28:08;;;;;;;12.27;6.97;;;;;;;6.91;89.47;100572.25;5031695;28;20029;-78
2024/01/17 10:30:36;;;;;;;10.77;5.20;;;;;;;7.37;89.75;100639.69;5031632;28;20487;-80
2024/01/17 10:33:02;;;;;;;8.88;5.18;;;;;;;7.59;89.51;100663.13;5031053;28;20037;-77
2024/01/17 10:35:28;;;;;;;12.10;5.65;;;;;;;7.67;88.79;100667.78;5030230;28;20030;-78
2024/01/17 10:37:55;;;;;;;12.80;5.95;;;;;;;7.41;89.72;100627.09;5031756;28;20021;-77
2024/01/17 10:40:20;;;;;;;10.10;5.57;;;;;;;7.86;88.32;100679.88;5031947;28;20037;-78
2024/01/17 10:42:46;;;;;;;8.95;6.00;;;;;;;7.47;88.52;100641.06;5029029;28;20030;-77
2024/01/17 10:45:20;;;;;;;9.20;5.38;;;;;;;7.43;88.38;100616.91;5031211;28;20034;-76
2024/01/17 10:47:46;;;;;;;10.63;5.72;;;;;;;7.45;88.70;100597.28;5031237;28;20033;-78
2024/01/17 10:50:12;;;;;;;7.50;5.05;;;;;;;7.99;87.15;100658.25;5031842;28;20498;-78
2024/01/17 10:52:40;;;;;;;11.00;5.70;;;;;;;7.81;86.81;100610.25;5030619;28;20041;-77
2024/01/17 10:55:08;;;;;;;9.93;6.10;;;;;;;8.17;86.57;100671.16;5025713;28;20029;-84
2024/01/17 10:57:40;;;;;;;8.90;5.85;;;;;;;8.12;87.19;100654.63;5031012;28;20075;-78
2024/01/17 11:00:11;;;;;;;7.90;5.15;;;;;;;8.22;86.03;100639.72;5008383;28;20046;-81
2024/01/17 11:02:40;;;;;;;9.82;6.38;;;;;;;8.40;86.18;100646.56;4991981;28;20165;-81
2024/01/17 11:05:11;;;;;;;8.73;5.10;;;;;;;8.52;84.57;100647.19;4969461;28;20038;-81
2024/01/17 11:07:40;;;;;;;11.07;5.32;;;;;;;8.59;84.74;100627.78;4973368;28;20080;-77
2024/01/17 11:10:07;;;;;;;8.35;4.97;;;;;;;8.55;84.36;100623.31;4953134;28;20060;-78
2024/01/17 11:12:36;;;;;;;9.07;4.55;;;;;;;8.43;85.29;100611.56;4953417;28;20402;-76
2024/01/17 11:15:04;;;;;;;8.70;4.90;;;;;;;8.62;85.60;100614.16;4970068;28;20477;-77
2024/01/17 11:17:35;;;;;;;10.40;4.82;;;;;;;8.73;83.96;100615.56;4968897;28;20305;-77